sensor_id;sensor_type;location;lat;lon;timestamp;P1;durP1;ratioP1;P2;durP2;ratioP2
74227;SDS011;62587;52.352;5.006;2023-01-29T00:01:54;10.23;;;5.28;;
74227;SDS011;62587;52.352;5.006;2023-01-29T00:04:20;7.32;;;5.20;;
74227;SDS011;62587;52.352;5.006;2023-01-29T00:06:45;7.30;;;4.93;;
74227;SDS011;62587;52.352;5.006;2023-01-29T00:09:11;7.80;;;4.85;;
74227;SDS011;62587;52.352;5.006;2023-01-29T00:11:37;7.50;;;5.10;;
74227;SDS011;62587;52.352;5.006;2023-01-29T00:14:03;5.95;;;4.45;;
74227;SDS011;62587;52.352;5.006;2023-01-29T00:16:28;6.85;;;4.75;;
74227;SDS011;62587;52.352;5.006;2023-01-29T00:18:54;8.57;;;5.00;;
74227;SDS011;62587;52.352;5.006;2023-01-29T00:21:20;8.02;;;4.95;;
74227;SDS011;62587;52.352;5.006;2023-01-29T00:23:47;5.40;;;4.78;;
74227;SDS011;62587;52.352;5.006;2023-01-29T00:26:13;8.77;;;4.72;;
74227;SDS011;62587;52.352;5.006;2023-01-29T00:28:38;6.20;;;4.60;;
74227;SDS011;62587;52.352;5.006;2023-01-29T00:31:11;7.97;;;4.50;;
74227;SDS011;62587;52.352;5.006;2023-01-29T00:33:37;4.47;;;4.05;;
74227;SDS011;62587;52.352;5.006;2023-01-29T00:36:07;5.70;;;4.30;;
74227;SDS011;62587;52.352;5.006;2023-01-29T00:38:34;6.18;;;4.10;;
74227;SDS011;62587;52.352;5.006;2023-01-29T00:41:07;7.53;;;4.47;;
74227;SDS011;62587;52.352;5.006;2023-01-29T00:43:53;5.10;;;4.60;;
74227;SDS011;62587;52.352;5.006;2023-01-29T00:46:38;5.75;;;4.28;;
74227;SDS011;62587;52.352;5.006;2023-01-29T00:49:03;5.97;;;3.80;;
74227;SDS011;62587;52.352;5.006;2023-01-29T00:51:30;6.38;;;4.25;;
74227;SDS011;62587;52.352;5.006;2023-01-29T00:53:55;7.35;;;4.25;;
74227;SDS011;62587;52.352;5.006;2023-01-29T00:56:25;7.43;;;4.68;;
74227;SDS011;62587;52.352;5.006;2023-01-29T00:58:52;5.18;;;4.25;;
74227;SDS011;62587;52.352;5.006;2023-01-29T01:01:18;6.75;;;4.15;;
74227;SDS011;62587;52.352;5.006;2023-01-29T01:04:03;10.50;;;4.40;;
74227;SDS011;62587;52.352;5.006;2023-01-29T01:06:28;4.80;;;4.20;;
74227;SDS011;62587;52.352;5.006;2023-01-29T01:08:54;6.37;;;4.00;;
74227;SDS011;62587;52.352;5.006;2023-01-29T01:11:37;5.00;;;4.15;;
74227;SDS011;62587;52.352;5.006;2023-01-29T01:14:03;5.47;;;3.73;;
74227;SDS011;62587;52.352;5.006;2023-01-29T01:16:28;7.10;;;4.15;;
74227;SDS011;62587;52.352;5.006;2023-01-29T01:18:53;10.55;;;4.15;;
74227;SDS011;62587;52.352;5.006;2023-01-29T01:21:19;6.77;;;4.10;;
74227;SDS011;62587;52.352;5.006;2023-01-29T01:23:44;5.00;;;4.17;;
74227;SDS011;62587;52.352;5.006;2023-01-29T01:26:09;6.75;;;4.78;;
74227;SDS011;62587;52.352;5.006;2023-01-29T01:28:35;5.40;;;4.75;;
74227;SDS011;62587;52.352;5.006;2023-01-29T01:31:08;8.60;;;4.93;;
74227;SDS011;62587;52.352;5.006;2023-01-29T01:33:37;7.78;;;4.50;;
74227;SDS011;62587;52.352;5.006;2023-01-29T01:36:04;5.90;;;4.28;;
74227;SDS011;62587;52.352;5.006;2023-01-29T01:38:33;8.32;;;4.43;;
74227;SDS011;62587;52.352;5.006;2023-01-29T01:41:08;10.02;;;4.70;;
74227;SDS011;62587;52.352;5.006;2023-01-29T01:46:21;7.38;;;4.85;;
74227;SDS011;62587;52.352;5.006;2023-01-29T01:48:49;9.57;;;5.53;;
74227;SDS011;62587;52.352;5.006;2023-01-29T01:51:25;11.80;;;5.50;;
74227;SDS011;62587;52.352;5.006;2023-01-29T01:54:27;10.80;;;5.78;;
74227;SDS011;62587;52.352;5.006;2023-01-29T01:56:52;11.20;;;4.93;;
74227;SDS011;62587;52.352;5.006;2023-01-29T01:59:34;9.18;;;5.32;;
74227;SDS011;62587;52.352;5.006;2023-01-29T02:02:03;10.90;;;5.47;;
74227;SDS011;62587;52.352;5.006;2023-01-29T02:04:48;9.50;;;5.72;;
74227;SDS011;62587;52.352;5.006;2023-01-29T02:07:32;9.43;;;5.75;;
74227;SDS011;62587;52.352;5.006;2023-01-29T02:10:17;8.30;;;5.72;;
74227;SDS011;62587;52.352;5.006;2023-01-29T02:12:44;6.80;;;5.28;;
74227;SDS011;62587;52.352;5.006;2023-01-29T02:15:11;11.52;;;5.80;;
74227;SDS011;62587;52.352;5.006;2023-01-29T02:17:37;12.43;;;6.53;;
74227;SDS011;62587;52.352;5.006;2023-01-29T02:36:36;9.82;;;6.10;;
74227;SDS011;62587;52.352;5.006;2023-01-29T02:39:16;9.30;;;6.63;;
74227;SDS011;62587;52.352;5.006;2023-01-29T02:47:33;7.43;;;6.70;;
74227;SDS011;62587;52.352;5.006;2023-01-29T02:55:20;7.88;;;7.07;;
74227;SDS011;62587;52.352;5.006;2023-01-29T02:57:54;9.43;;;7.40;;
74227;SDS011;62587;52.352;5.006;2023-01-29T03:00:29;9.63;;;7.28;;
74227;SDS011;62587;52.352;5.006;2023-01-29T03:08:32;9.55;;;7.68;;
74227;SDS011;62587;52.352;5.006;2023-01-29T03:11:07;15.77;;;7.88;;
74227;SDS011;62587;52.352;5.006;2023-01-29T03:16:11;9.75;;;7.65;;
74227;SDS011;62587;52.352;5.006;2023-01-29T03:18:43;11.07;;;7.05;;
74227;SDS011;62587;52.352;5.006;2023-01-29T03:21:17;11.55;;;7.88;;
74227;SDS011;62587;52.352;5.006;2023-01-29T03:24:05;11.73;;;8.07;;
74227;SDS011;62587;52.352;5.006;2023-01-29T03:26:53;9.88;;;8.32;;
74227;SDS011;62587;52.352;5.006;2023-01-29T03:29:37;10.82;;;7.95;;
74227;SDS011;62587;52.352;5.006;2023-01-29T03:32:22;12.20;;;8.27;;
74227;SDS011;62587;52.352;5.006;2023-01-29T03:34:53;10.32;;;8.00;;
74227;SDS011;62587;52.352;5.006;2023-01-29T03:37:26;10.88;;;7.55;;
74227;SDS011;62587;52.352;5.006;2023-01-29T03:39:58;11.25;;;10.02;;
74227;SDS011;62587;52.352;5.006;2023-01-29T03:42:28;11.23;;;8.32;;
74227;SDS011;62587;52.352;5.006;2023-01-29T03:45:13;10.43;;;9.32;;
74227;SDS011;62587;52.352;5.006;2023-01-29T03:47:48;11.45;;;9.68;;
74227;SDS011;62587;52.352;5.006;2023-01-29T04:00:44;19.47;;;9.33;;
74227;SDS011;62587;52.352;5.006;2023-01-29T04:05:58;19.77;;;8.85;;
74227;SDS011;62587;52.352;5.006;2023-01-29T04:08:51;13.98;;;9.23;;
74227;SDS011;62587;52.352;5.006;2023-01-29T04:11:22;14.00;;;9.20;;
74227;SDS011;62587;52.352;5.006;2023-01-29T04:13:49;11.77;;;9.40;;
74227;SDS011;62587;52.352;5.006;2023-01-29T04:16:24;9.88;;;8.25;;
74227;SDS011;62587;52.352;5.006;2023-01-29T04:18:53;11.38;;;9.05;;
74227;SDS011;62587;52.352;5.006;2023-01-29T04:21:19;13.25;;;9.68;;
74227;SDS011;62587;52.352;5.006;2023-01-29T04:23:45;12.68;;;9.27;;
74227;SDS011;62587;52.352;5.006;2023-01-29T04:26:18;12.35;;;9.15;;
74227;SDS011;62587;52.352;5.006;2023-01-29T04:28:58;12.63;;;9.13;;
74227;SDS011;62587;52.352;5.006;2023-01-29T04:31:59;10.98;;;8.45;;
74227;SDS011;62587;52.352;5.006;2023-01-29T04:34:28;12.38;;;9.43;;
74227;SDS011;62587;52.352;5.006;2023-01-29T04:40:14;11.63;;;8.93;;
74227;SDS011;62587;52.352;5.006;2023-01-29T04:42:59;11.93;;;9.55;;
74227;SDS011;62587;52.352;5.006;2023-01-29T04:48:40;12.85;;;9.38;;
74227;SDS011;62587;52.352;5.006;2023-01-29T04:54:27;10.68;;;9.10;;
74227;SDS011;62587;52.352;5.006;2023-01-29T04:57:09;10.40;;;8.70;;
74227;SDS011;62587;52.352;5.006;2023-01-29T04:59:46;11.52;;;9.20;;
74227;SDS011;62587;52.352;5.006;2023-01-29T05:02:17;10.85;;;9.75;;
74227;SDS011;62587;52.352;5.006;2023-01-29T05:04:45;12.23;;;9.38;;
74227;SDS011;62587;52.352;5.006;2023-01-29T05:07:13;14.27;;;9.73;;
74227;SDS011;62587;52.352;5.006;2023-01-29T05:09:40;11.55;;;9.52;;
74227;SDS011;62587;52.352;5.006;2023-01-29T05:12:08;9.60;;;8.57;;
74227;SDS011;62587;52.352;5.006;2023-01-29T05:14:35;11.35;;;10.18;;
74227;SDS011;62587;52.352;5.006;2023-01-29T05:17:07;10.95;;;9.63;;
74227;SDS011;62587;52.352;5.006;2023-01-29T05:19:38;10.60;;;9.20;;
74227;SDS011;62587;52.352;5.006;2023-01-29T05:22:04;11.30;;;9.75;;
74227;SDS011;62587;52.352;5.006;2023-01-29T05:24:34;11.23;;;9.57;;
74227;SDS011;62587;52.352;5.006;2023-01-29T05:27:00;12.07;;;10.60;;
74227;SDS011;62587;52.352;5.006;2023-01-29T05:29:44;11.57;;;10.38;;
74227;SDS011;62587;52.352;5.006;2023-01-29T05:32:11;11.27;;;10.07;;
74227;SDS011;62587;52.352;5.006;2023-01-29T05:34:36;11.95;;;10.63;;
74227;SDS011;62587;52.352;5.006;2023-01-29T05:37:02;13.23;;;10.63;;
74227;SDS011;62587;52.352;5.006;2023-01-29T05:39:28;12.68;;;9.50;;
74227;SDS011;62587;52.352;5.006;2023-01-29T05:41:54;11.90;;;10.55;;
74227;SDS011;62587;52.352;5.006;2023-01-29T05:44:19;12.77;;;9.80;;
74227;SDS011;62587;52.352;5.006;2023-01-29T05:46:44;11.52;;;10.02;;
74227;SDS011;62587;52.352;5.006;2023-01-29T05:49:10;11.13;;;9.82;;
74227;SDS011;62587;52.352;5.006;2023-01-29T05:51:36;13.48;;;10.25;;
74227;SDS011;62587;52.352;5.006;2023-01-29T05:54:01;11.80;;;10.52;;
74227;SDS011;62587;52.352;5.006;2023-01-29T05:56:27;12.35;;;11.05;;
74227;SDS011;62587;52.352;5.006;2023-01-29T05:58:52;13.15;;;10.43;;
74227;SDS011;62587;52.352;5.006;2023-01-29T06:01:18;12.07;;;10.77;;
74227;SDS011;62587;52.352;5.006;2023-01-29T06:03:45;15.07;;;10.32;;
74227;SDS011;62587;52.352;5.006;2023-01-29T06:06:11;12.65;;;11.35;;
74227;SDS011;62587;52.352;5.006;2023-01-29T06:08:37;12.15;;;10.38;;
74227;SDS011;62587;52.352;5.006;2023-01-29T06:11:02;13.10;;;10.45;;
74227;SDS011;62587;52.352;5.006;2023-01-29T06:13:28;12.20;;;10.95;;
74227;SDS011;62587;52.352;5.006;2023-01-29T06:15:54;12.43;;;10.40;;
74227;SDS011;62587;52.352;5.006;2023-01-29T06:18:19;11.67;;;10.47;;
74227;SDS011;62587;52.352;5.006;2023-01-29T06:20:44;14.45;;;11.05;;
74227;SDS011;62587;52.352;5.006;2023-01-29T06:23:10;11.98;;;10.65;;
74227;SDS011;62587;52.352;5.006;2023-01-29T06:25:35;13.65;;;11.02;;
74227;SDS011;62587;52.352;5.006;2023-01-29T06:28:00;13.73;;;11.73;;
74227;SDS011;62587;52.352;5.006;2023-01-29T06:30:26;13.30;;;11.57;;
74227;SDS011;62587;52.352;5.006;2023-01-29T06:32:55;13.25;;;11.20;;
74227;SDS011;62587;52.352;5.006;2023-01-29T06:35:25;12.90;;;11.27;;
74227;SDS011;62587;52.352;5.006;2023-01-29T06:37:51;14.02;;;12.38;;
74227;SDS011;62587;52.352;5.006;2023-01-29T06:40:16;13.40;;;12.00;;
74227;SDS011;62587;52.352;5.006;2023-01-29T06:42:42;12.40;;;10.77;;
74227;SDS011;62587;52.352;5.006;2023-01-29T06:45:07;13.23;;;11.40;;
74227;SDS011;62587;52.352;5.006;2023-01-29T06:47:33;14.55;;;11.30;;
74227;SDS011;62587;52.352;5.006;2023-01-29T06:49:59;13.93;;;10.70;;
74227;SDS011;62587;52.352;5.006;2023-01-29T06:52:24;12.88;;;11.55;;
74227;SDS011;62587;52.352;5.006;2023-01-29T06:54:52;13.57;;;11.25;;
74227;SDS011;62587;52.352;5.006;2023-01-29T06:57:18;13.60;;;12.18;;
74227;SDS011;62587;52.352;5.006;2023-01-29T06:59:44;12.25;;;10.95;;
74227;SDS011;62587;52.352;5.006;2023-01-29T07:02:09;13.13;;;11.75;;
74227;SDS011;62587;52.352;5.006;2023-01-29T07:04:34;13.50;;;11.13;;
74227;SDS011;62587;52.352;5.006;2023-01-29T07:07:02;14.00;;;11.25;;
74227;SDS011;62587;52.352;5.006;2023-01-29T07:09:28;13.82;;;12.32;;
74227;SDS011;62587;52.352;5.006;2023-01-29T07:11:53;15.13;;;12.33;;
74227;SDS011;62587;52.352;5.006;2023-01-29T07:14:18;12.63;;;11.32;;
74227;SDS011;62587;52.352;5.006;2023-01-29T07:16:44;13.40;;;11.30;;
74227;SDS011;62587;52.352;5.006;2023-01-29T07:19:09;13.50;;;12.05;;
74227;SDS011;62587;52.352;5.006;2023-01-29T07:21:35;14.15;;;12.25;;
74227;SDS011;62587;52.352;5.006;2023-01-29T07:24:01;13.50;;;11.65;;
74227;SDS011;62587;52.352;5.006;2023-01-29T07:26:27;13.15;;;11.65;;
74227;SDS011;62587;52.352;5.006;2023-01-29T07:28:52;13.45;;;11.25;;
74227;SDS011;62587;52.352;5.006;2023-01-29T07:31:18;12.88;;;11.48;;
74227;SDS011;62587;52.352;5.006;2023-01-29T07:33:43;13.38;;;11.40;;
74227;SDS011;62587;52.352;5.006;2023-01-29T07:36:09;12.82;;;10.93;;
74227;SDS011;62587;52.352;5.006;2023-01-29T07:38:36;12.45;;;10.70;;
74227;SDS011;62587;52.352;5.006;2023-01-29T07:41:01;13.95;;;11.30;;
74227;SDS011;62587;52.352;5.006;2023-01-29T07:43:27;13.35;;;11.95;;
74227;SDS011;62587;52.352;5.006;2023-01-29T07:45:52;12.60;;;11.32;;
74227;SDS011;62587;52.352;5.006;2023-01-29T07:48:17;14.37;;;12.93;;
74227;SDS011;62587;52.352;5.006;2023-01-29T07:50:43;13.05;;;11.65;;
74227;SDS011;62587;52.352;5.006;2023-01-29T07:53:12;12.13;;;10.80;;
74227;SDS011;62587;52.352;5.006;2023-01-29T07:55:39;12.63;;;11.13;;
74227;SDS011;62587;52.352;5.006;2023-01-29T07:58:05;12.00;;;10.23;;
74227;SDS011;62587;52.352;5.006;2023-01-29T08:00:30;13.50;;;11.32;;
74227;SDS011;62587;52.352;5.006;2023-01-29T08:05:50;12.25;;;10.95;;
74227;SDS011;62587;52.352;5.006;2023-01-29T08:08:15;13.00;;;10.48;;
74227;SDS011;62587;52.352;5.006;2023-01-29T08:10:41;13.90;;;11.43;;
74227;SDS011;62587;52.352;5.006;2023-01-29T08:13:07;12.27;;;10.98;;
74227;SDS011;62587;52.352;5.006;2023-01-29T08:15:33;13.30;;;11.40;;
74227;SDS011;62587;52.352;5.006;2023-01-29T08:17:59;12.85;;;11.45;;
74227;SDS011;62587;52.352;5.006;2023-01-29T08:20:26;11.93;;;10.32;;
74227;SDS011;62587;52.352;5.006;2023-01-29T08:23:01;13.13;;;11.60;;
74227;SDS011;62587;52.352;5.006;2023-01-29T08:25:28;12.73;;;10.88;;
74227;SDS011;62587;52.352;5.006;2023-01-29T08:27:54;12.43;;;11.13;;
74227;SDS011;62587;52.352;5.006;2023-01-29T08:30:21;12.38;;;10.50;;
74227;SDS011;62587;52.352;5.006;2023-01-29T08:32:47;13.00;;;11.15;;
74227;SDS011;62587;52.352;5.006;2023-01-29T08:35:12;11.95;;;10.75;;
74227;SDS011;62587;52.352;5.006;2023-01-29T08:37:37;12.63;;;10.57;;
74227;SDS011;62587;52.352;5.006;2023-01-29T08:40:03;12.48;;;11.05;;
74227;SDS011;62587;52.352;5.006;2023-01-29T08:42:29;12.25;;;11.05;;
74227;SDS011;62587;52.352;5.006;2023-01-29T08:44:54;12.30;;;10.73;;
74227;SDS011;62587;52.352;5.006;2023-01-29T08:47:19;11.47;;;10.23;;
74227;SDS011;62587;52.352;5.006;2023-01-29T08:49:44;13.93;;;10.63;;
74227;SDS011;62587;52.352;5.006;2023-01-29T08:52:11;12.38;;;11.10;;
74227;SDS011;62587;52.352;5.006;2023-01-29T08:54:36;11.50;;;10.30;;
74227;SDS011;62587;52.352;5.006;2023-01-29T08:57:02;11.57;;;9.83;;
74227;SDS011;62587;52.352;5.006;2023-01-29T08:59:28;11.55;;;10.35;;
74227;SDS011;62587;52.352;5.006;2023-01-29T09:01:53;12.37;;;10.33;;
74227;SDS011;62587;52.352;5.006;2023-01-29T09:04:18;11.57;;;10.37;;
74227;SDS011;62587;52.352;5.006;2023-01-29T09:06:44;11.63;;;10.43;;
74227;SDS011;62587;52.352;5.006;2023-01-29T09:09:09;14.50;;;11.43;;
74227;SDS011;62587;52.352;5.006;2023-01-29T09:11:35;12.00;;;10.82;;
74227;SDS011;62587;52.352;5.006;2023-01-29T09:14:02;12.18;;;10.15;;
74227;SDS011;62587;52.352;5.006;2023-01-29T09:16:27;12.18;;;10.98;;
74227;SDS011;62587;52.352;5.006;2023-01-29T09:18:52;11.63;;;10.20;;
74227;SDS011;62587;52.352;5.006;2023-01-29T09:21:18;11.20;;;9.95;;
74227;SDS011;62587;52.352;5.006;2023-01-29T09:23:44;11.70;;;10.50;;
74227;SDS011;62587;52.352;5.006;2023-01-29T09:26:09;11.23;;;10.20;;
74227;SDS011;62587;52.352;5.006;2023-01-29T09:28:34;10.97;;;9.87;;
74227;SDS011;62587;52.352;5.006;2023-01-29T09:31:00;11.85;;;10.55;;
74227;SDS011;62587;52.352;5.006;2023-01-29T09:33:26;11.02;;;9.88;;
74227;SDS011;62587;52.352;5.006;2023-01-29T09:35:52;11.82;;;9.98;;
74227;SDS011;62587;52.352;5.006;2023-01-29T09:38:17;13.35;;;10.18;;
74227;SDS011;62587;52.352;5.006;2023-01-29T09:43:30;11.88;;;9.70;;
74227;SDS011;62587;52.352;5.006;2023-01-29T09:49:06;11.95;;;10.10;;
74227;SDS011;62587;52.352;5.006;2023-01-29T09:51:34;12.68;;;11.38;;
74227;SDS011;62587;52.352;5.006;2023-01-29T09:56:30;11.70;;;10.45;;
74227;SDS011;62587;52.352;5.006;2023-01-29T09:58:56;13.07;;;11.00;;
74227;SDS011;62587;52.352;5.006;2023-01-29T10:11:42;16.75;;;11.68;;
74227;SDS011;62587;52.352;5.006;2023-01-29T10:18:16;13.27;;;11.38;;
74227;SDS011;62587;52.352;5.006;2023-01-29T10:23:22;13.45;;;12.05;;
74227;SDS011;62587;52.352;5.006;2023-01-29T10:25:50;12.55;;;11.23;;
74227;SDS011;62587;52.352;5.006;2023-01-29T10:28:19;13.70;;;10.77;;
74227;SDS011;62587;52.352;5.006;2023-01-29T10:30:50;13.38;;;10.73;;
74227;SDS011;62587;52.352;5.006;2023-01-29T10:33:40;13.20;;;10.70;;
74227;SDS011;62587;52.352;5.006;2023-01-29T10:36:12;12.07;;;10.20;;
74227;SDS011;62587;52.352;5.006;2023-01-29T10:38:43;12.82;;;10.98;;
74227;SDS011;62587;52.352;5.006;2023-01-29T10:46:38;13.05;;;11.65;;
74227;SDS011;62587;52.352;5.006;2023-01-29T10:51:50;11.40;;;10.20;;
74227;SDS011;62587;52.352;5.006;2023-01-29T10:54:36;12.00;;;10.77;;
74227;SDS011;62587;52.352;5.006;2023-01-29T11:02:32;12.85;;;11.38;;
74227;SDS011;62587;52.352;5.006;2023-01-29T11:04:58;12.40;;;11.10;;
74227;SDS011;62587;52.352;5.006;2023-01-29T11:07:23;12.52;;;11.23;;
74227;SDS011;62587;52.352;5.006;2023-01-29T11:09:51;14.02;;;11.88;;
74227;SDS011;62587;52.352;5.006;2023-01-29T11:12:32;12.88;;;11.48;;
74227;SDS011;62587;52.352;5.006;2023-01-29T11:15:02;13.15;;;11.27;;
74227;SDS011;62587;52.352;5.006;2023-01-29T11:17:29;14.13;;;12.32;;
74227;SDS011;62587;52.352;5.006;2023-01-29T11:19:54;15.85;;;12.70;;
74227;SDS011;62587;52.352;5.006;2023-01-29T11:22:23;12.77;;;11.38;;
74227;SDS011;62587;52.352;5.006;2023-01-29T11:25:06;17.67;;;12.23;;
74227;SDS011;62587;52.352;5.006;2023-01-29T11:27:38;14.07;;;12.40;;
74227;SDS011;62587;52.352;5.006;2023-01-29T11:30:13;14.00;;;12.30;;
74227;SDS011;62587;52.352;5.006;2023-01-29T11:32:42;15.63;;;12.45;;
74227;SDS011;62587;52.352;5.006;2023-01-29T11:37:40;14.23;;;12.35;;
74227;SDS011;62587;52.352;5.006;2023-01-29T11:42:47;14.82;;;12.00;;
74227;SDS011;62587;52.352;5.006;2023-01-29T11:45:31;15.80;;;12.55;;
74227;SDS011;62587;52.352;5.006;2023-01-29T11:47:58;19.15;;;12.70;;
74227;SDS011;62587;52.352;5.006;2023-01-29T11:50:25;13.32;;;11.85;;
74227;SDS011;62587;52.352;5.006;2023-01-29T11:52:53;17.42;;;13.80;;
74227;SDS011;62587;52.352;5.006;2023-01-29T11:55:25;15.18;;;13.57;;
74227;SDS011;62587;52.352;5.006;2023-01-29T11:58:00;18.10;;;14.07;;
74227;SDS011;62587;52.352;5.006;2023-01-29T12:00:29;15.30;;;12.82;;
74227;SDS011;62587;52.352;5.006;2023-01-29T12:05:31;16.15;;;12.98;;
74227;SDS011;62587;52.352;5.006;2023-01-29T12:07:57;16.25;;;13.07;;
74227;SDS011;62587;52.352;5.006;2023-01-29T12:13:29;17.65;;;12.57;;
74227;SDS011;62587;52.352;5.006;2023-01-29T12:16:04;14.57;;;12.48;;
74227;SDS011;62587;52.352;5.006;2023-01-29T12:18:38;16.85;;;12.90;;
74227;SDS011;62587;52.352;5.006;2023-01-29T12:21:17;14.07;;;12.57;;
74227;SDS011;62587;52.352;5.006;2023-01-29T12:26:32;17.60;;;12.77;;
74227;SDS011;62587;52.352;5.006;2023-01-29T12:34:41;16.17;;;13.00;;
74227;SDS011;62587;52.352;5.006;2023-01-29T12:39:50;17.85;;;12.82;;
74227;SDS011;62587;52.352;5.006;2023-01-29T12:42:20;14.98;;;12.60;;
74227;SDS011;62587;52.352;5.006;2023-01-29T12:45:02;15.35;;;12.50;;
74227;SDS011;62587;52.352;5.006;2023-01-29T12:52:46;14.77;;;12.30;;
74227;SDS011;62587;52.352;5.006;2023-01-29T12:55:37;13.07;;;11.63;;
74227;SDS011;62587;52.352;5.006;2023-01-29T12:58:49;15.98;;;12.55;;
74227;SDS011;62587;52.352;5.006;2023-01-29T13:01:11;17.92;;;12.68;;
74227;SDS011;62587;52.352;5.006;2023-01-29T13:03:58;13.95;;;12.40;;
74227;SDS011;62587;52.352;5.006;2023-01-29T13:06:25;19.95;;;13.70;;
74227;SDS011;62587;52.352;5.006;2023-01-29T13:09:19;15.55;;;13.20;;
74227;SDS011;62587;52.352;5.006;2023-01-29T13:11:50;14.77;;;13.23;;
74227;SDS011;62587;52.352;5.006;2023-01-29T13:14:27;16.92;;;13.85;;
74227;SDS011;62587;52.352;5.006;2023-01-29T13:17:07;18.65;;;14.55;;
74227;SDS011;62587;52.352;5.006;2023-01-29T13:19:39;19.83;;;15.68;;
74227;SDS011;62587;52.352;5.006;2023-01-29T13:22:23;20.50;;;15.82;;
74227;SDS011;62587;52.352;5.006;2023-01-29T13:24:51;19.95;;;15.48;;
74227;SDS011;62587;52.352;5.006;2023-01-29T13:27:23;18.42;;;14.85;;
74227;SDS011;62587;52.352;5.006;2023-01-29T13:29:51;17.15;;;14.50;;
74227;SDS011;62587;52.352;5.006;2023-01-29T13:32:22;19.83;;;14.93;;
74227;SDS011;62587;52.352;5.006;2023-01-29T13:34:50;21.15;;;16.00;;
74227;SDS011;62587;52.352;5.006;2023-01-29T13:37:29;18.67;;;14.98;;
74227;SDS011;62587;52.352;5.006;2023-01-29T13:39:58;18.15;;;16.05;;
74227;SDS011;62587;52.352;5.006;2023-01-29T13:45:21;24.08;;;14.82;;
74227;SDS011;62587;52.352;5.006;2023-01-29T13:47:50;17.05;;;14.55;;
74227;SDS011;62587;52.352;5.006;2023-01-29T13:50:18;18.23;;;14.30;;
74227;SDS011;62587;52.352;5.006;2023-01-29T13:53:01;18.98;;;14.23;;
74227;SDS011;62587;52.352;5.006;2023-01-29T13:58:00;24.58;;;16.08;;
74227;SDS011;62587;52.352;5.006;2023-01-29T14:07:54;17.48;;;13.73;;
74227;SDS011;62587;52.352;5.006;2023-01-29T14:10:37;17.50;;;13.10;;
74227;SDS011;62587;52.352;5.006;2023-01-29T14:20:23;16.17;;;12.98;;
74227;SDS011;62587;52.352;5.006;2023-01-29T14:22:55;14.90;;;12.57;;
74227;SDS011;62587;52.352;5.006;2023-01-29T14:25:27;16.55;;;13.30;;
74227;SDS011;62587;52.352;5.006;2023-01-29T14:27:55;18.73;;;13.40;;
74227;SDS011;62587;52.352;5.006;2023-01-29T14:30:22;20.40;;;12.70;;
74227;SDS011;62587;52.352;5.006;2023-01-29T14:32:50;14.32;;;12.07;;
74227;SDS011;62587;52.352;5.006;2023-01-29T14:35:20;16.88;;;12.88;;
74227;SDS011;62587;52.352;5.006;2023-01-29T14:37:48;15.90;;;13.40;;
74227;SDS011;62587;52.352;5.006;2023-01-29T14:48:01;14.15;;;12.65;;
74227;SDS011;62587;52.352;5.006;2023-01-29T14:56:09;17.10;;;13.30;;
74227;SDS011;62587;52.352;5.006;2023-01-29T15:04:14;15.95;;;12.85;;
74227;SDS011;62587;52.352;5.006;2023-01-29T15:06:58;15.75;;;12.82;;
74227;SDS011;62587;52.352;5.006;2023-01-29T15:09:30;14.10;;;12.60;;
74227;SDS011;62587;52.352;5.006;2023-01-29T15:12:04;17.58;;;12.20;;
74227;SDS011;62587;52.352;5.006;2023-01-29T15:17:44;16.67;;;12.00;;
74227;SDS011;62587;52.352;5.006;2023-01-29T15:22:58;15.80;;;13.43;;
74227;SDS011;62587;52.352;5.006;2023-01-29T15:25:24;15.88;;;12.70;;
74227;SDS011;62587;52.352;5.006;2023-01-29T15:27:55;15.18;;;12.75;;
74227;SDS011;62587;52.352;5.006;2023-01-29T15:30:25;16.42;;;13.48;;
74227;SDS011;62587;52.352;5.006;2023-01-29T15:32:55;17.17;;;13.65;;
74227;SDS011;62587;52.352;5.006;2023-01-29T15:35:28;14.52;;;12.20;;
74227;SDS011;62587;52.352;5.006;2023-01-29T15:38:03;15.13;;;12.63;;
74227;SDS011;62587;52.352;5.006;2023-01-29T15:40:28;14.80;;;12.50;;
74227;SDS011;62587;52.352;5.006;2023-01-29T15:42:54;14.48;;;12.27;;
74227;SDS011;62587;52.352;5.006;2023-01-29T15:45:30;15.27;;;12.07;;
74227;SDS011;62587;52.352;5.006;2023-01-29T15:48:01;14.10;;;12.07;;
74227;SDS011;62587;52.352;5.006;2023-01-29T15:50:30;16.40;;;12.40;;
74227;SDS011;62587;52.352;5.006;2023-01-29T15:52:57;13.57;;;11.95;;
74227;SDS011;62587;52.352;5.006;2023-01-29T15:55:24;18.05;;;11.00;;
74227;SDS011;62587;52.352;5.006;2023-01-29T15:57:51;17.02;;;12.02;;
74227;SDS011;62587;52.352;5.006;2023-01-29T16:00:21;14.02;;;11.18;;
74227;SDS011;62587;52.352;5.006;2023-01-29T16:02:50;13.85;;;10.02;;
74227;SDS011;62587;52.352;5.006;2023-01-29T16:05:16;28.33;;;10.70;;
74227;SDS011;62587;52.352;5.006;2023-01-29T16:07:44;49.95;;;13.82;;
74227;SDS011;62587;52.352;5.006;2023-01-29T16:10:15;73.15;;;15.77;;
74227;SDS011;62587;52.352;5.006;2023-01-29T16:12:43;52.17;;;13.82;;
74227;SDS011;62587;52.352;5.006;2023-01-29T16:15:14;49.30;;;12.85;;
74227;SDS011;62587;52.352;5.006;2023-01-29T16:22:56;30.02;;;9.48;;
74227;SDS011;62587;52.352;5.006;2023-01-29T16:25:22;32.20;;;10.07;;
74227;SDS011;62587;52.352;5.006;2023-01-29T16:27:47;25.77;;;8.73;;
74227;SDS011;62587;52.352;5.006;2023-01-29T16:30:14;21.27;;;8.50;;
74227;SDS011;62587;52.352;5.006;2023-01-29T16:32:40;22.38;;;8.82;;
74227;SDS011;62587;52.352;5.006;2023-01-29T16:35:06;25.48;;;8.13;;
74227;SDS011;62587;52.352;5.006;2023-01-29T16:37:39;22.23;;;8.00;;
74227;SDS011;62587;52.352;5.006;2023-01-29T16:45:42;13.77;;;6.65;;
74227;SDS011;62587;52.352;5.006;2023-01-29T16:48:27;20.85;;;7.85;;
74227;SDS011;62587;52.352;5.006;2023-01-29T16:51:10;18.50;;;6.82;;
74227;SDS011;62587;52.352;5.006;2023-01-29T16:53:38;15.00;;;7.15;;
74227;SDS011;62587;52.352;5.006;2023-01-29T16:56:05;13.38;;;7.03;;
74227;SDS011;62587;52.352;5.006;2023-01-29T16:58:32;14.27;;;6.45;;
74227;SDS011;62587;52.352;5.006;2023-01-29T17:01:01;15.85;;;7.47;;
74227;SDS011;62587;52.352;5.006;2023-01-29T17:03:29;17.27;;;6.78;;
74227;SDS011;62587;52.352;5.006;2023-01-29T17:05:57;11.95;;;7.93;;
74227;SDS011;62587;52.352;5.006;2023-01-29T17:10:56;13.75;;;6.80;;
74227;SDS011;62587;52.352;5.006;2023-01-29T17:13:25;15.20;;;6.03;;
74227;SDS011;62587;52.352;5.006;2023-01-29T17:15:58;13.32;;;6.45;;
74227;SDS011;62587;52.352;5.006;2023-01-29T17:18:24;13.60;;;6.78;;
74227;SDS011;62587;52.352;5.006;2023-01-29T17:20:50;12.43;;;6.53;;
74227;SDS011;62587;52.352;5.006;2023-01-29T17:23:17;12.45;;;6.97;;
74227;SDS011;62587;52.352;5.006;2023-01-29T17:25:42;13.10;;;6.13;;
74227;SDS011;62587;52.352;5.006;2023-01-29T17:28:10;11.73;;;6.55;;
74227;SDS011;62587;52.352;5.006;2023-01-29T17:30:37;13.68;;;7.10;;
74227;SDS011;62587;52.352;5.006;2023-01-29T17:33:15;10.00;;;6.50;;
74227;SDS011;62587;52.352;5.006;2023-01-29T17:35:45;11.88;;;7.28;;
74227;SDS011;62587;52.352;5.006;2023-01-29T17:38:11;8.52;;;5.78;;
74227;SDS011;62587;52.352;5.006;2023-01-29T17:43:09;9.30;;;6.35;;
74227;SDS011;62587;52.352;5.006;2023-01-29T17:45:36;12.13;;;7.15;;
74227;SDS011;62587;52.352;5.006;2023-01-29T17:48:03;12.38;;;6.13;;
74227;SDS011;62587;52.352;5.006;2023-01-29T17:50:29;11.50;;;6.28;;
74227;SDS011;62587;52.352;5.006;2023-01-29T17:52:56;10.68;;;6.18;;
74227;SDS011;62587;52.352;5.006;2023-01-29T17:55:21;8.97;;;6.57;;